sensor_id;sensor_type;location;lat;lon;timestamp;P1;durP1;ratioP1;P2;durP2;ratioP2
9304;SDS011;4690;52.422;13.486;2023-05-07T00:05:53;14.47;;;13.03;;
9304;SDS011;4690;52.422;13.486;2023-05-07T00:08:18;14.37;;;12.93;;
9304;SDS011;4690;52.422;13.486;2023-05-07T00:10:45;14.70;;;13.17;;
9304;SDS011;4690;52.422;13.486;2023-05-07T00:13:11;15.83;;;12.90;;
9304;SDS011;4690;52.422;13.486;2023-05-07T00:15:37;13.80;;;12.50;;
9304;SDS011;4690;52.422;13.486;2023-05-07T00:18:03;15.57;;;13.90;;
9304;SDS011;4690;52.422;13.486;2023-05-07T00:20:29;14.23;;;12.83;;
9304;SDS011;4690;52.422;13.486;2023-05-07T00:22:55;14.93;;;13.37;;
9304;SDS011;4690;52.422;13.486;2023-05-07T00:25:21;13.87;;;12.53;;
9304;SDS011;4690;52.422;13.486;2023-05-07T00:27:47;15.40;;;12.93;;
9304;SDS011;4690;52.422;13.486;2023-05-07T00:30:12;15.00;;;12.00;;
9304;SDS011;4690;52.422;13.486;2023-05-07T00:32:38;13.77;;;12.37;;
9304;SDS011;4690;52.422;13.486;2023-05-07T00:35:05;12.77;;;11.57;;
9304;SDS011;4690;52.422;13.486;2023-05-07T00:37:31;12.40;;;11.10;;
9304;SDS011;4690;52.422;13.486;2023-05-07T00:39:58;12.07;;;10.87;;
9304;SDS011;4690;52.422;13.486;2023-05-07T00:42:24;11.77;;;10.57;;
9304;SDS011;4690;52.422;13.486;2023-05-07T00:44:50;11.83;;;10.63;;
9304;SDS011;4690;52.422;13.486;2023-05-07T00:47:16;11.63;;;10.43;;
9304;SDS011;4690;52.422;13.486;2023-05-07T00:49:43;11.43;;;10.33;;
9304;SDS011;4690;52.422;13.486;2023-05-07T00:52:11;14.87;;;9.63;;
9304;SDS011;4690;52.422;13.486;2023-05-07T00:54:43;10.13;;;9.30;;
9304;SDS011;4690;52.422;13.486;2023-05-07T00:57:10;10.50;;;9.50;;
9304;SDS011;4690;52.422;13.486;2023-05-07T00:59:36;10.43;;;9.20;;
9304;SDS011;4690;52.422;13.486;2023-05-07T01:02:02;10.67;;;9.77;;
9304;SDS011;4690;52.422;13.486;2023-05-07T01:04:28;10.87;;;9.23;;
9304;SDS011;4690;52.422;13.486;2023-05-07T01:06:55;10.40;;;9.37;;
9304;SDS011;4690;52.422;13.486;2023-05-07T01:09:23;12.27;;;9.67;;
9304;SDS011;4690;52.422;13.486;2023-05-07T01:11:50;12.23;;;10.93;;
9304;SDS011;4690;52.422;13.486;2023-05-07T01:14:18;11.20;;;9.83;;
9304;SDS011;4690;52.422;13.486;2023-05-07T01:16:46;11.33;;;10.23;;
9304;SDS011;4690;52.422;13.486;2023-05-07T01:19:16;12.10;;;11.00;;
9304;SDS011;4690;52.422;13.486;2023-05-07T01:21:47;12.30;;;11.00;;
9304;SDS011;4690;52.422;13.486;2023-05-07T01:24:16;11.20;;;10.10;;
9304;SDS011;4690;52.422;13.486;2023-05-07T01:26:43;12.03;;;10.83;;
9304;SDS011;4690;52.422;13.486;2023-05-07T01:29:09;11.20;;;10.20;;
9304;SDS011;4690;52.422;13.486;2023-05-07T01:31:35;11.53;;;10.43;;
9304;SDS011;4690;52.422;13.486;2023-05-07T01:34:03;12.20;;;11.00;;
9304;SDS011;4690;52.422;13.486;2023-05-07T01:36:33;12.93;;;11.53;;
9304;SDS011;4690;52.422;13.486;2023-05-07T01:39:03;11.80;;;10.60;;
9304;SDS011;4690;52.422;13.486;2023-05-07T01:41:33;11.80;;;10.70;;
9304;SDS011;4690;52.422;13.486;2023-05-07T01:44:00;12.70;;;11.50;;
9304;SDS011;4690;52.422;13.486;2023-05-07T01:46:28;11.67;;;10.50;;
9304;SDS011;4690;52.422;13.486;2023-05-07T01:48:55;13.17;;;11.37;;
9304;SDS011;4690;52.422;13.486;2023-05-07T01:51:20;13.77;;;12.07;;
9304;SDS011;4690;52.422;13.486;2023-05-07T01:53:47;12.53;;;11.27;;
9304;SDS011;4690;52.422;13.486;2023-05-07T01:56:16;11.60;;;10.00;;
9304;SDS011;4690;52.422;13.486;2023-05-07T01:58:44;11.83;;;10.37;;
9304;SDS011;4690;52.422;13.486;2023-05-07T02:01:12;11.30;;;10.10;;
9304;SDS011;4690;52.422;13.486;2023-05-07T02:03:38;11.17;;;10.07;;
9304;SDS011;4690;52.422;13.486;2023-05-07T02:06:04;12.07;;;10.83;;
9304;SDS011;4690;52.422;13.486;2023-05-07T02:08:30;11.80;;;10.60;;
9304;SDS011;4690;52.422;13.486;2023-05-07T02:10:56;12.67;;;10.60;;
9304;SDS011;4690;52.422;13.486;2023-05-07T02:13:22;12.43;;;10.77;;
9304;SDS011;4690;52.422;13.486;2023-05-07T02:15:49;10.93;;;9.93;;
9304;SDS011;4690;52.422;13.486;2023-05-07T02:18:15;12.07;;;10.80;;
9304;SDS011;4690;52.422;13.486;2023-05-07T02:20:42;12.20;;;11.00;;
9304;SDS011;4690;52.422;13.486;2023-05-07T02:23:08;11.73;;;10.27;;
9304;SDS011;4690;52.422;13.486;2023-05-07T02:25:33;11.47;;;10.27;;
9304;SDS011;4690;52.422;13.486;2023-05-07T02:27:59;10.90;;;9.80;;
9304;SDS011;4690;52.422;13.486;2023-05-07T02:30:25;12.03;;;10.83;;
9304;SDS011;4690;52.422;13.486;2023-05-07T02:32:51;10.87;;;9.87;;
9304;SDS011;4690;52.422;13.486;2023-05-07T02:35:17;11.10;;;10.00;;
9304;SDS011;4690;52.422;13.486;2023-05-07T02:37:43;12.40;;;10.10;;
9304;SDS011;4690;52.422;13.486;2023-05-07T02:40:08;12.90;;;10.57;;
9304;SDS011;4690;52.422;13.486;2023-05-07T02:42:36;11.40;;;10.30;;
9304;SDS011;4690;52.422;13.486;2023-05-07T02:45:01;11.63;;;10.30;;
9304;SDS011;4690;52.422;13.486;2023-05-07T02:47:27;11.23;;;10.03;;
9304;SDS011;4690;52.422;13.486;2023-05-07T02:49:54;11.53;;;10.43;;
9304;SDS011;4690;52.422;13.486;2023-05-07T02:52:20;11.47;;;10.27;;
9304;SDS011;4690;52.422;13.486;2023-05-07T02:54:46;11.60;;;10.50;;
9304;SDS011;4690;52.422;13.486;2023-05-07T02:57:12;11.30;;;10.20;;
9304;SDS011;4690;52.422;13.486;2023-05-07T02:59:38;12.30;;;10.00;;
9304;SDS011;4690;52.422;13.486;2023-05-07T03:02:04;11.57;;;10.40;;
9304;SDS011;4690;52.422;13.486;2023-05-07T03:04:30;11.47;;;10.27;;
9304;SDS011;4690;52.422;13.486;2023-05-07T03:06:56;11.97;;;10.90;;
9304;SDS011;4690;52.422;13.486;2023-05-07T03:09:21;12.03;;;10.83;;
9304;SDS011;4690;52.422;13.486;2023-05-07T03:11:47;12.87;;;11.67;;
9304;SDS011;4690;52.422;13.486;2023-05-07T03:14:13;14.87;;;11.10;;
9304;SDS011;4690;52.422;13.486;2023-05-07T03:16:39;12.47;;;11.20;;
9304;SDS011;4690;52.422;13.486;2023-05-07T03:19:05;12.97;;;11.67;;
9304;SDS011;4690;52.422;13.486;2023-05-07T03:21:31;11.97;;;10.87;;
9304;SDS011;4690;52.422;13.486;2023-05-07T03:23:58;13.40;;;11.30;;
9304;SDS011;4690;52.422;13.486;2023-05-07T03:26:25;12.77;;;11.50;;
9304;SDS011;4690;52.422;13.486;2023-05-07T03:28:51;12.80;;;11.50;;
9304;SDS011;4690;52.422;13.486;2023-05-07T03:31:17;12.52;;;11.40;;
9304;SDS011;4690;52.422;13.486;2023-05-07T03:33:53;12.70;;;11.30;;
9304;SDS011;4690;52.422;13.486;2023-05-07T03:36:21;12.23;;;11.13;;
9304;SDS011;4690;52.422;13.486;2023-05-07T03:38:47;11.93;;;10.83;;
9304;SDS011;4690;52.422;13.486;2023-05-07T03:41:14;11.30;;;10.30;;
9304;SDS011;4690;52.422;13.486;2023-05-07T03:43:40;12.97;;;11.63;;
9304;SDS011;4690;52.422;13.486;2023-05-07T03:46:06;13.63;;;12.23;;
9304;SDS011;4690;52.422;13.486;2023-05-07T03:48:32;12.33;;;11.13;;
9304;SDS011;4690;52.422;13.486;2023-05-07T03:50:58;12.40;;;11.20;;
9304;SDS011;4690;52.422;13.486;2023-05-07T03:53:24;13.73;;;12.33;;
9304;SDS011;4690;52.422;13.486;2023-05-07T03:55:50;13.80;;;12.40;;
9304;SDS011;4690;52.422;13.486;2023-05-07T03:58:16;13.53;;;12.13;;
9304;SDS011;4690;52.422;13.486;2023-05-07T04:00:42;14.93;;;13.20;;
9304;SDS011;4690;52.422;13.486;2023-05-07T04:03:07;13.83;;;12.47;;
9304;SDS011;4690;52.422;13.486;2023-05-07T04:05:33;15.87;;;12.57;;
9304;SDS011;4690;52.422;13.486;2023-05-07T04:07:59;15.07;;;11.93;;
9304;SDS011;4690;52.422;13.486;2023-05-07T04:10:26;12.53;;;11.17;;
9304;SDS011;4690;52.422;13.486;2023-05-07T04:12:53;13.30;;;12.00;;
9304;SDS011;4690;52.422;13.486;2023-05-07T04:15:22;12.73;;;11.43;;
9304;SDS011;4690;52.422;13.486;2023-05-07T04:17:49;12.53;;;11.33;;
9304;SDS011;4690;52.422;13.486;2023-05-07T04:20:15;13.30;;;12.00;;
9304;SDS011;4690;52.422;13.486;2023-05-07T04:22:42;12.60;;;11.30;;
9304;SDS011;4690;52.422;13.486;2023-05-07T04:25:08;12.33;;;11.23;;
9304;SDS011;4690;52.422;13.486;2023-05-07T04:27:35;11.97;;;10.77;;
9304;SDS011;4690;52.422;13.486;2023-05-07T04:30:04;11.30;;;10.30;;
9304;SDS011;4690;52.422;13.486;2023-05-07T04:32:31;15.57;;;11.00;;
9304;SDS011;4690;52.422;13.486;2023-05-07T04:34:57;11.97;;;10.87;;
9304;SDS011;4690;52.422;13.486;2023-05-07T04:37:23;10.80;;;9.70;;
9304;SDS011;4690;52.422;13.486;2023-05-07T04:39:50;11.70;;;10.50;;
9304;SDS011;4690;52.422;13.486;2023-05-07T04:42:16;11.33;;;10.13;;
9304;SDS011;4690;52.422;13.486;2023-05-07T04:44:43;11.90;;;10.70;;
9304;SDS011;4690;52.422;13.486;2023-05-07T04:47:12;10.33;;;9.33;;
9304;SDS011;4690;52.422;13.486;2023-05-07T04:49:38;11.03;;;9.93;;
9304;SDS011;4690;52.422;13.486;2023-05-07T04:52:04;11.27;;;10.17;;
9304;SDS011;4690;52.422;13.486;2023-05-07T04:54:30;11.57;;;10.37;;
9304;SDS011;4690;52.422;13.486;2023-05-07T04:56:56;11.70;;;10.50;;
9304;SDS011;4690;52.422;13.486;2023-05-07T04:59:21;11.20;;;10.13;;
9304;SDS011;4690;52.422;13.486;2023-05-07T05:01:47;10.60;;;9.60;;
9304;SDS011;4690;52.422;13.486;2023-05-07T05:04:13;10.53;;;9.47;;
9304;SDS011;4690;52.422;13.486;2023-05-07T05:06:39;14.10;;;9.53;;
9304;SDS011;4690;52.422;13.486;2023-05-07T05:09:05;10.87;;;9.23;;
9304;SDS011;4690;52.422;13.486;2023-05-07T05:11:31;10.10;;;9.20;;
9304;SDS011;4690;52.422;13.486;2023-05-07T05:13:58;10.83;;;8.23;;
9304;SDS011;4690;52.422;13.486;2023-05-07T05:16:25;9.90;;;8.90;;
9304;SDS011;4690;52.422;13.486;2023-05-07T05:18:51;9.67;;;8.67;;
9304;SDS011;4690;52.422;13.486;2023-05-07T05:21:19;9.53;;;8.63;;
9304;SDS011;4690;52.422;13.486;2023-05-07T05:23:45;9.00;;;8.17;;
9304;SDS011;4690;52.422;13.486;2023-05-07T05:26:11;9.27;;;8.47;;
9304;SDS011;4690;52.422;13.486;2023-05-07T05:28:36;9.73;;;8.73;;
9304;SDS011;4690;52.422;13.486;2023-05-07T05:31:02;8.17;;;7.47;;
9304;SDS011;4690;52.422;13.486;2023-05-07T05:33:28;10.27;;;7.83;;
9304;SDS011;4690;52.422;13.486;2023-05-07T05:35:54;8.73;;;7.83;;
9304;SDS011;4690;52.422;13.486;2023-05-07T05:38:20;8.77;;;7.53;;
9304;SDS011;4690;52.422;13.486;2023-05-07T05:40:46;9.17;;;7.40;;
9304;SDS011;4690;52.422;13.486;2023-05-07T05:43:12;8.47;;;7.67;;
9304;SDS011;4690;52.422;13.486;2023-05-07T05:45:39;7.80;;;7.00;;
9304;SDS011;4690;52.422;13.486;2023-05-07T05:48:05;8.13;;;7.27;;
9304;SDS011;4690;52.422;13.486;2023-05-07T05:50:31;7.60;;;6.83;;
9304;SDS011;4690;52.422;13.486;2023-05-07T05:52:57;7.97;;;6.93;;
9304;SDS011;4690;52.422;13.486;2023-05-07T05:55:23;7.10;;;6.40;;
9304;SDS011;4690;52.422;13.486;2023-05-07T05:57:49;6.93;;;6.33;;
9304;SDS011;4690;52.422;13.486;2023-05-07T06:00:15;7.43;;;6.73;;
9304;SDS011;4690;52.422;13.486;2023-05-07T06:02:41;6.97;;;6.27;;
9304;SDS011;4690;52.422;13.486;2023-05-07T06:05:10;7.23;;;6.53;;
9304;SDS011;4690;52.422;13.486;2023-05-07T06:07:36;7.50;;;6.80;;
9304;SDS011;4690;52.422;13.486;2023-05-07T06:10:01;7.57;;;6.77;;
9304;SDS011;4690;52.422;13.486;2023-05-07T06:12:27;7.70;;;6.37;;
9304;SDS011;4690;52.422;13.486;2023-05-07T06:14:53;7.63;;;6.80;;
9304;SDS011;4690;52.422;13.486;2023-05-07T06:17:19;9.20;;;8.30;;
9304;SDS011;4690;52.422;13.486;2023-05-07T06:19:45;8.00;;;7.20;;
9304;SDS011;4690;52.422;13.486;2023-05-07T06:22:11;8.77;;;7.90;;
9304;SDS011;4690;52.422;13.486;2023-05-07T06:24:37;8.23;;;7.37;;
9304;SDS011;4690;52.422;13.486;2023-05-07T06:27:02;9.50;;;8.60;;
9304;SDS011;4690;52.422;13.486;2023-05-07T06:29:28;9.00;;;7.90;;
9304;SDS011;4690;52.422;13.486;2023-05-07T06:31:56;8.27;;;7.47;;
9304;SDS011;4690;52.422;13.486;2023-05-07T06:34:31;9.00;;;6.73;;
9304;SDS011;4690;52.422;13.486;2023-05-07T06:36:57;8.80;;;7.97;;
9304;SDS011;4690;52.422;13.486;2023-05-07T06:39:23;8.37;;;7.57;;
9304;SDS011;4690;52.422;13.486;2023-05-07T06:41:49;8.57;;;7.77;;
9304;SDS011;4690;52.422;13.486;2023-05-07T06:44:14;8.83;;;7.93;;
9304;SDS011;4690;52.422;13.486;2023-05-07T06:46:40;8.20;;;7.50;;
9304;SDS011;4690;52.422;13.486;2023-05-07T06:49:06;8.30;;;7.40;;
9304;SDS011;4690;52.422;13.486;2023-05-07T06:51:32;8.50;;;7.60;;
9304;SDS011;4690;52.422;13.486;2023-05-07T06:53:58;8.63;;;7.73;;
9304;SDS011;4690;52.422;13.486;2023-05-07T06:56:24;8.93;;;7.70;;
9304;SDS011;4690;52.422;13.486;2023-05-07T06:58:50;8.97;;;7.17;;
9304;SDS011;4690;52.422;13.486;2023-05-07T07:01:16;8.17;;;7.30;;
9304;SDS011;4690;52.422;13.486;2023-05-07T07:03:42;7.77;;;6.63;;
9304;SDS011;4690;52.422;13.486;2023-05-07T07:06:07;7.40;;;6.73;;
9304;SDS011;4690;52.422;13.486;2023-05-07T07:08:33;7.70;;;6.50;;
9304;SDS011;4690;52.422;13.486;2023-05-07T07:10:59;7.97;;;7.00;;
9304;SDS011;4690;52.422;13.486;2023-05-07T07:13:25;7.20;;;6.50;;
9304;SDS011;4690;52.422;13.486;2023-05-07T07:15:51;7.23;;;6.53;;
9304;SDS011;4690;52.422;13.486;2023-05-07T07:18:18;6.73;;;6.13;;
9304;SDS011;4690;52.422;13.486;2023-05-07T07:20:44;7.27;;;6.10;;
9304;SDS011;4690;52.422;13.486;2023-05-07T07:23:10;6.67;;;5.53;;
9304;SDS011;4690;52.422;13.486;2023-05-07T07:25:36;6.23;;;5.10;;
9304;SDS011;4690;52.422;13.486;2023-05-07T07:28:01;7.87;;;6.70;;
9304;SDS011;4690;52.422;13.486;2023-05-07T07:30:27;7.83;;;5.93;;
9304;SDS011;4690;52.422;13.486;2023-05-07T07:32:53;7.97;;;6.10;;
9304;SDS011;4690;52.422;13.486;2023-05-07T07:35:20;7.27;;;5.27;;
9304;SDS011;4690;52.422;13.486;2023-05-07T07:37:46;7.43;;;5.60;;
9304;SDS011;4690;52.422;13.486;2023-05-07T07:40:14;8.30;;;5.43;;
9304;SDS011;4690;52.422;13.486;2023-05-07T07:42:40;5.87;;;5.30;;
9304;SDS011;4690;52.422;13.486;2023-05-07T07:45:06;5.77;;;5.27;;
9304;SDS011;4690;52.422;13.486;2023-05-07T07:47:33;5.70;;;5.10;;
9304;SDS011;4690;52.422;13.486;2023-05-07T07:49:59;4.50;;;4.10;;
9304;SDS011;4690;52.422;13.486;2023-05-07T07:52:24;5.00;;;4.60;;
9304;SDS011;4690;52.422;13.486;2023-05-07T07:54:50;4.57;;;4.17;;
9304;SDS011;4690;52.422;13.486;2023-05-07T07:57:16;4.70;;;4.20;;
9304;SDS011;4690;52.422;13.486;2023-05-07T07:59:42;5.17;;;4.37;;
9304;SDS011;4690;52.422;13.486;2023-05-07T08:02:08;5.27;;;4.73;;
9304;SDS011;4690;52.422;13.486;2023-05-07T08:04:34;4.97;;;4.57;;
9304;SDS011;4690;52.422;13.486;2023-05-07T08:07:00;4.97;;;4.00;;
9304;SDS011;4690;52.422;13.486;2023-05-07T08:09:26;4.67;;;4.23;;
9304;SDS011;4690;52.422;13.486;2023-05-07T08:11:54;4.53;;;4.13;;
9304;SDS011;4690;52.422;13.486;2023-05-07T08:14:20;4.67;;;4.27;;
9304;SDS011;4690;52.422;13.486;2023-05-07T08:16:46;5.63;;;4.80;;
9304;SDS011;4690;52.422;13.486;2023-05-07T08:19:11;8.00;;;4.30;;
9304;SDS011;4690;52.422;13.486;2023-05-07T08:21:38;6.27;;;4.60;;
9304;SDS011;4690;52.422;13.486;2023-05-07T08:24:04;5.80;;;4.30;;
9304;SDS011;4690;52.422;13.486;2023-05-07T08:26:30;4.20;;;3.80;;
9304;SDS011;4690;52.422;13.486;2023-05-07T08:28:56;4.13;;;3.80;;
9304;SDS011;4690;52.422;13.486;2023-05-07T08:31:22;4.27;;;3.60;;
9304;SDS011;4690;52.422;13.486;2023-05-07T08:33:48;4.33;;;3.90;;
9304;SDS011;4690;52.422;13.486;2023-05-07T08:36:14;4.50;;;3.87;;
9304;SDS011;4690;52.422;13.486;2023-05-07T08:38:40;3.70;;;3.37;;
9304;SDS011;4690;52.422;13.486;2023-05-07T08:41:09;4.07;;;3.47;;
9304;SDS011;4690;52.422;13.486;2023-05-07T08:43:36;4.00;;;3.20;;
9304;SDS011;4690;52.422;13.486;2023-05-07T08:46:05;5.03;;;3.50;;
9304;SDS011;4690;52.422;13.486;2023-05-07T08:48:34;3.77;;;3.47;;
9304;SDS011;4690;52.422;13.486;2023-05-07T08:51:00;4.73;;;3.17;;
9304;SDS011;4690;52.422;13.486;2023-05-07T08:53:26;3.60;;;3.30;;
9304;SDS011;4690;52.422;13.486;2023-05-07T08:55:52;5.25;;;3.25;;
9304;SDS011;4690;52.422;13.486;2023-05-07T08:58:19;3.83;;;2.97;;
9304;SDS011;4690;52.422;13.486;2023-05-07T09:00:44;3.58;;;3.28;;
9304;SDS011;4690;52.422;13.486;2023-05-07T09:03:12;3.85;;;3.30;;
9304;SDS011;4690;52.422;13.486;2023-05-07T09:05:39;4.40;;;3.00;;
9304;SDS011;4690;52.422;13.486;2023-05-07T09:08:05;5.85;;;2.90;;
9304;SDS011;4690;52.422;13.486;2023-05-07T09:10:33;4.05;;;3.10;;
9304;SDS011;4690;52.422;13.486;2023-05-07T09:12:59;3.60;;;3.08;;
9304;SDS011;4690;52.422;13.486;2023-05-07T09:15:25;4.07;;;3.05;;
9304;SDS011;4690;52.422;13.486;2023-05-07T09:17:53;3.90;;;3.50;;
9304;SDS011;4690;52.422;13.486;2023-05-07T09:20:19;3.53;;;3.07;;
9304;SDS011;4690;52.422;13.486;2023-05-07T09:22:46;3.75;;;3.13;;
9304;SDS011;4690;52.422;13.486;2023-05-07T09:25:14;3.50;;;3.17;;
9304;SDS011;4690;52.422;13.486;2023-05-07T09:27:41;3.30;;;3.00;;
9304;SDS011;4690;52.422;13.486;2023-05-07T09:30:07;5.45;;;3.00;;
9304;SDS011;4690;52.422;13.486;2023-05-07T09:32:36;3.97;;;2.70;;
9304;SDS011;4690;52.422;13.486;2023-05-07T09:35:05;3.37;;;3.00;;
9304;SDS011;4690;52.422;13.486;2023-05-07T09:37:39;3.23;;;2.73;;
9304;SDS011;4690;52.422;13.486;2023-05-07T09:40:06;3.30;;;2.50;;
9304;SDS011;4690;52.422;13.486;2023-05-07T09:42:34;3.53;;;3.23;;
9304;SDS011;4690;52.422;13.486;2023-05-07T09:45:00;3.43;;;3.13;;
9304;SDS011;4690;52.422;13.486;2023-05-07T09:47:26;4.37;;;3.57;;
9304;SDS011;4690;52.422;13.486;2023-05-07T09:49:57;4.00;;;3.17;;
9304;SDS011;4690;52.422;13.486;2023-05-07T09:52:30;3.10;;;2.80;;
9304;SDS011;4690;52.422;13.486;2023-05-07T09:55:00;2.83;;;2.57;;
9304;SDS011;4690;52.422;13.486;2023-05-07T09:57:27;4.30;;;3.10;;
9304;SDS011;4690;52.422;13.486;2023-05-07T09:59:55;3.40;;;3.00;;
9304;SDS011;4690;52.422;13.486;2023-05-07T10:02:23;3.23;;;2.60;;
9304;SDS011;4690;52.422;13.486;2023-05-07T10:04:55;3.30;;;3.10;;
9304;SDS011;4690;52.422;13.486;2023-05-07T10:07:23;4.60;;;2.90;;
9304;SDS011;4690;52.422;13.486;2023-05-07T10:09:50;3.03;;;2.70;;
9304;SDS011;4690;52.422;13.486;2023-05-07T10:12:17;2.80;;;2.57;;
9304;SDS011;4690;52.422;13.486;2023-05-07T10:14:44;6.10;;;3.83;;
9304;SDS011;4690;52.422;13.486;2023-05-07T10:17:13;3.10;;;2.80;;
9304;SDS011;4690;52.422;13.486;2023-05-07T10:19:42;2.60;;;2.40;;
9304;SDS011;4690;52.422;13.486;2023-05-07T10:22:09;2.33;;;2.13;;
9304;SDS011;4690;52.422;13.486;2023-05-07T10:24:37;2.60;;;2.40;;
9304;SDS011;4690;52.422;13.486;2023-05-07T10:27:04;2.73;;;2.47;;
9304;SDS011;4690;52.422;13.486;2023-05-07T10:29:44;5.07;;;2.20;;
9304;SDS011;4690;52.422;13.486;2023-05-07T10:35:23;3.13;;;2.50;;
9304;SDS011;4690;52.422;13.486;2023-05-07T10:37:56;2.83;;;2.20;;
9304;SDS011;4690;52.422;13.486;2023-05-07T10:40:23;2.43;;;2.23;;
9304;SDS011;4690;52.422;13.486;2023-05-07T10:42:59;3.70;;;3.20;;
9304;SDS011;4690;52.422;13.486;2023-05-07T10:45:29;2.73;;;2.53;;
9304;SDS011;4690;52.422;13.486;2023-05-07T10:50:42;2.27;;;2.07;;
9304;SDS011;4690;52.422;13.486;2023-05-07T10:55:42;3.03;;;2.60;;
9304;SDS011;4690;52.422;13.486;2023-05-07T11:01:01;3.73;;;2.33;;
9304;SDS011;4690;52.422;13.486;2023-05-07T11:03:27;3.38;;;2.22;;
9304;SDS011;4690;52.422;13.486;2023-05-07T11:06:10;14.02;;;6.60;;
9304;SDS011;4690;52.422;13.486;2023-05-07T11:08:54;3.70;;;2.72;;
9304;SDS011;4690;52.422;13.486;2023-05-07T11:17:10;3.05;;;2.15;;
9304;SDS011;4690;52.422;13.486;2023-05-07T11:19:53;3.40;;;2.58;;
9304;SDS011;4690;52.422;13.486;2023-05-07T11:25:02;2.63;;;2.42;;
9304;SDS011;4690;52.422;13.486;2023-05-07T11:27:29;2.58;;;2.38;;
9304;SDS011;4690;52.422;13.486;2023-05-07T11:29:55;3.80;;;2.20;;
9304;SDS011;4690;52.422;13.486;2023-05-07T11:32:24;2.40;;;2.20;;
9304;SDS011;4690;52.422;13.486;2023-05-07T11:34:56;2.78;;;2.03;;
9304;SDS011;4690;52.422;13.486;2023-05-07T11:37:23;4.20;;;2.60;;
9304;SDS011;4690;52.422;13.486;2023-05-07T11:40:13;2.72;;;2.20;;
9304;SDS011;4690;52.422;13.486;2023-05-07T11:42:39;2.72;;;2.28;;
9304;SDS011;4690;52.422;13.486;2023-05-07T11:45:07;4.40;;;2.53;;
9304;SDS011;4690;52.422;13.486;2023-05-07T11:47:34;2.30;;;2.10;;
9304;SDS011;4690;52.422;13.486;2023-05-07T11:50:04;2.75;;;2.35;;
9304;SDS011;4690;52.422;13.486;2023-05-07T11:52:33;2.60;;;2.40;;
9304;SDS011;4690;52.422;13.486;2023-05-07T11:55:00;2.50;;;2.30;;
9304;SDS011;4690;52.422;13.486;2023-05-07T11:57:29;4.60;;;2.33;;
9304;SDS011;4690;52.422;13.486;2023-05-07T12:02:22;2.17;;;1.98;;
9304;SDS011;4690;52.422;13.486;2023-05-07T12:04:50;3.23;;;2.10;;
9304;SDS011;4690;52.422;13.486;2023-05-07T12:07:19;4.55;;;2.58;;
9304;SDS011;4690;52.422;13.486;2023-05-07T12:09:46;2.35;;;2.00;;
9304;SDS011;4690;52.422;13.486;2023-05-07T12:12:13;2.28;;;2.00;;
9304;SDS011;4690;52.422;13.486;2023-05-07T12:14:40;2.78;;;2.20;;
9304;SDS011;4690;52.422;13.486;2023-05-07T12:17:09;2.17;;;1.98;;
9304;SDS011;4690;52.422;13.486;2023-05-07T12:19:36;3.75;;;2.22;;
9304;SDS011;4690;52.422;13.486;2023-05-07T12:22:04;2.55;;;2.35;;
9304;SDS011;4690;52.422;13.486;2023-05-07T12:24:45;2.20;;;1.90;;
9304;SDS011;4690;52.422;13.486;2023-05-07T12:27:13;2.33;;;1.83;;
9304;SDS011;4690;52.422;13.486;2023-05-07T12:29:43;3.20;;;2.10;;
9304;SDS011;4690;52.422;13.486;2023-05-07T12:32:17;3.00;;;2.22;;
9304;SDS011;4690;52.422;13.486;2023-05-07T12:34:46;2.45;;;2.25;;
9304;SDS011;4690;52.422;13.486;2023-05-07T12:37:16;2.65;;;2.10;;
9304;SDS011;4690;52.422;13.486;2023-05-07T12:39:49;3.28;;;2.10;;
9304;SDS011;4690;52.422;13.486;2023-05-07T12:42:32;4.07;;;3.25;;
9304;SDS011;4690;52.422;13.486;2023-05-07T12:45:07;3.45;;;2.20;;
9304;SDS011;4690;52.422;13.486;2023-05-07T12:47:45;2.58;;;1.90;;
9304;SDS011;4690;52.422;13.486;2023-05-07T12:50:12;2.30;;;2.10;;
9304;SDS011;4690;52.422;13.486;2023-05-07T12:52:40;2.88;;;2.50;;
9304;SDS011;4690;52.422;13.486;2023-05-07T12:55:08;2.40;;;2.20;;
9304;SDS011;4690;52.422;13.486;2023-05-07T12:57:38;5.68;;;3.55;;
9304;SDS011;4690;52.422;13.486;2023-05-07T13:00:13;3.97;;;2.00;;
9304;SDS011;4690;52.422;13.486;2023-05-07T13:02:40;3.42;;;1.98;;
9304;SDS011;4690;52.422;13.486;2023-05-07T13:05:09;2.65;;;2.00;;
9304;SDS011;4690;52.422;13.486;2023-05-07T13:07:35;3.30;;;2.50;;
9304;SDS011;4690;52.422;13.486;2023-05-07T13:10:02;2.25;;;2.05;;
9304;SDS011;4690;52.422;13.486;2023-05-07T13:12:29;2.17;;;1.98;;
9304;SDS011;4690;52.422;13.486;2023-05-07T13:14:55;7.03;;;4.20;;
9304;SDS011;4690;52.422;13.486;2023-05-07T13:17:20;3.85;;;2.63;;
9304;SDS011;4690;52.422;13.486;2023-05-07T13:19:46;8.25;;;4.38;;
9304;SDS011;4690;52.422;13.486;2023-05-07T13:22:12;5.53;;;3.40;;
9304;SDS011;4690;52.422;13.486;2023-05-07T13:24:38;7.70;;;4.32;;
9304;SDS011;4690;52.422;13.486;2023-05-07T13:27:06;4.72;;;2.47;;
9304;SDS011;4690;52.422;13.486;2023-05-07T13:29:32;2.65;;;2.42;;
9304;SDS011;4690;52.422;13.486;2023-05-07T13:31:57;3.17;;;2.53;;
9304;SDS011;4690;52.422;13.486;2023-05-07T13:34:24;4.15;;;2.67;;
9304;SDS011;4690;52.422;13.486;2023-05-07T13:36:50;2.88;;;2.20;;
9304;SDS011;4690;52.422;13.486;2023-05-07T13:39:16;2.17;;;2.03;;
9304;SDS011;4690;52.422;13.486;2023-05-07T13:41:42;4.13;;;3.60;;
9304;SDS011;4690;52.422;13.486;2023-05-07T13:44:07;2.50;;;2.30;;
9304;SDS011;4690;52.422;13.486;2023-05-07T13:46:33;2.83;;;2.22;;
9304;SDS011;4690;52.422;13.486;2023-05-07T13:48:59;2.22;;;2.03;;
9304;SDS011;4690;52.422;13.486;2023-05-07T13:51:25;3.80;;;2.63;;
9304;SDS011;4690;52.422;13.486;2023-05-07T13:53:51;3.35;;;2.33;;
9304;SDS011;4690;52.422;13.486;2023-05-07T13:56:17;3.03;;;2.60;;
9304;SDS011;4690;52.422;13.486;2023-05-07T13:58:43;2.90;;;2.60;;
9304;SDS011;4690;52.422;13.486;2023-05-07T14:01:09;3.92;;;2.60;;
9304;SDS011;4690;52.422;13.486;2023-05-07T14:03:35;3.53;;;2.60;;
9304;SDS011;4690;52.422;13.486;2023-05-07T14:06:02;3.25;;;1.92;;
9304;SDS011;4690;52.422;13.486;2023-05-07T14:08:29;2.67;;;2.22;;
9304;SDS011;4690;52.422;13.486;2023-05-07T14:10:54;4.32;;;2.40;;
9304;SDS011;4690;52.422;13.486;2023-05-07T14:13:20;2.97;;;2.33;;
9304;SDS011;4690;52.422;13.486;2023-05-07T14:15:46;3.58;;;2.35;;
9304;SDS011;4690;52.422;13.486;2023-05-07T14:18:13;2.33;;;2.10;;
9304;SDS011;4690;52.422;13.486;2023-05-07T14:20:40;2.92;;;2.10;;
9304;SDS011;4690;52.422;13.486;2023-05-07T14:23:08;2.40;;;2.20;;
9304;SDS011;4690;52.422;13.486;2023-05-07T14:25:34;2.50;;;2.30;;
9304;SDS011;4690;52.422;13.486;2023-05-07T14:28:00;3.53;;;2.88;;
9304;SDS011;4690;52.422;13.486;2023-05-07T14:30:26;3.35;;;2.45;;
9304;SDS011;4690;52.422;13.486;2023-05-07T14:32:51;2.33;;;1.92;;
9304;SDS011;4690;52.422;13.486;2023-05-07T14:35:17;3.10;;;2.30;;
9304;SDS011;4690;52.422;13.486;2023-05-07T14:37:43;2.95;;;2.30;;
9304;SDS011;4690;52.422;13.486;2023-05-07T14:40:09;2.13;;;1.98;;
9304;SDS011;4690;52.422;13.486;2023-05-07T14:42:35;5.75;;;2.25;;
9304;SDS011;4690;52.422;13.486;2023-05-07T14:45:01;2.35;;;2.10;;
9304;SDS011;4690;52.422;13.486;2023-05-07T14:47:27;2.40;;;2.20;;
9304;SDS011;4690;52.422;13.486;2023-05-07T14:49:53;3.72;;;1.98;;
9304;SDS011;4690;52.422;13.486;2023-05-07T14:52:19;2.15;;;2.00;;
9304;SDS011;4690;52.422;13.486;2023-05-07T14:54:45;3.20;;;2.20;;
9304;SDS011;4690;52.422;13.486;2023-05-07T14:57:14;2.25;;;2.03;;
9304;SDS011;4690;52.422;13.486;2023-05-07T14:59:41;3.40;;;2.80;;
9304;SDS011;4690;52.422;13.486;2023-05-07T15:02:07;2.30;;;2.10;;
9304;SDS011;4690;52.422;13.486;2023-05-07T15:04:35;2.50;;;2.10;;
9304;SDS011;4690;52.422;13.486;2023-05-07T15:07:01;3.60;;;2.10;;
9304;SDS011;4690;52.422;13.486;2023-05-07T15:09:26;1.88;;;1.77;;
9304;SDS011;4690;52.422;13.486;2023-05-07T15:11:52;3.63;;;2.35;;
9304;SDS011;4690;52.422;13.486;2023-05-07T15:14:18;2.78;;;2.40;;
9304;SDS011;4690;52.422;13.486;2023-05-07T15:16:44;3.15;;;2.13;;
9304;SDS011;4690;52.422;13.486;2023-05-07T15:19:10;3.03;;;2.20;;